Toyomasa Maru — JJ3927 — position and weather

sailwx.info

Track history (hours):
 
Tides and Currents Weather Stations Pressure Air Temp Water Temp Dewpoint Dewpoint Depression Visibility Wind Speed Wind Dir Waves Ship Positions

Toyomasa Maru

Last reported at 2017-May-16 22:05 UTC. Time now 2017-May-26 22:48 UTC.
Position N 35°06' E 139°44'.
Warning: this ship's position is 10 days out of date.

Length 101 m; draft 6.7 m.

Type: Tanker. MMSI: 431300401.

Date/timePositionNaut miles runAvg speedWind from/ knotsBaromVisibWave heightAir tempDewpointWater temp
2017-May-16 22:05N 35°06' E 139°44'213.3
2017-May-16 21:56N 35°08' E 139°45'613.0
2017-May-16 21:30N 35°13' E 139°46'612.4
2017-May-16 21:00N 35°19' E 139°43'611.7
2017-May-16 20:30N 35°25' E 139°43'4 8.2
2017-May-16 20:00N 35°29' E 139°46'0 0.0
2017-May-16 19:30N 35°29' E 139°46'0 0.0
2017-May-16 19:00N 35°29' E 139°46'0 0.0
2017-May-16 18:30N 35°29' E 139°46'0 0.0
2017-May-16 18:00N 35°29' E 139°46'0 0.1
2017-May-16 17:30N 35°29' E 139°46'0 0.0
2017-May-16 17:00N 35°29' E 139°46'0 0.1
2017-May-16 16:30N 35°29' E 139°46'0 0.0
2017-May-16 16:00N 35°29' E 139°46'0 0.1
2017-May-16 15:30N 35°29' E 139°46'0 0.1
2017-May-16 15:00N 35°29' E 139°46'2 1.7
2017-May-16 14:00N 35°30' E 139°45'0 0.0
2017-May-16 13:30N 35°30' E 139°45'0 0.0
2017-May-16 13:00N 35°30' E 139°45'0 0.0
2017-May-16 12:30N 35°30' E 139°45'0 0.0
2017-May-16 12:00N 35°30' E 139°45'0 0.0
2017-May-16 11:30N 35°30' E 139°45'0 0.0
2017-May-16 10:57N 35°30' E 139°45'0 0.0
2017-May-16 10:30N 35°30' E 139°45'0 0.2
2017-May-16 10:00N 35°30' E 139°45'3 6.8
2017-May-16 09:31N 35°28' E 139°43'4 7.4
2017-May-16 09:00N 35°25' E 139°46'612.2
2017-May-16 08:30N 35°19' E 139°44'612.0
2017-May-16 08:01N 35°14' E 139°47'713.5
2017-May-16 07:29N 35°07' E 139°45'  
2017-May-13 15:48N 34°54' E 139°45'311.3
2017-May-13 15:30N 34°57' E 139°43'510.6
2017-May-13 15:00N 35°02' E 139°43'612.0
2017-May-13 14:31N 35°08' E 139°45'1212.2
2017-May-13 13:30N 35°20' E 139°42'612.4
2017-May-13 13:00N 35°26' E 139°45'713.5
2017-May-13 12:30N 35°30' E 139°52'10 1.8
2017-May-13 07:16N 35°32' E 140°03'7 5.1
2017-May-13 05:55N 35°29' E 139°56'1 0.6
2017-May-13 04:53N 35°29' E 139°55'0 0.0
2017-May-13 04:26N 35°29' E 139°55'0 0.0
2017-May-13 03:59N 35°29' E 139°55'0 0.0
2017-May-13 03:20N 35°29' E 139°55'0 0.0
2017-May-13 02:56N 35°29' E 139°55'0 0.0
2017-May-13 01:02N 35°29' E 139°55'0 0.0
2017-May-13 00:59N 35°29' E 139°55'0 0.0
2017-May-13 00:29N 35°29' E 139°55'0 0.0
2017-May-12 23:59N 35°29' E 139°55'0 0.0
2017-May-12 23:26N 35°29' E 139°55'0 0.0
2017-May-12 22:56N 35°29' E 139°55'0 0.0
2017-May-12 22:29N 35°29' E 139°55'0 0.0
2017-May-12 21:53N 35°29' E 139°55'0 0.0
2017-May-12 21:08N 35°29' E 139°55'0 0.0
2017-May-12 20:44N 35°29' E 139°55'0 0.0
2017-May-12 20:23N 35°29' E 139°55'0 0.0
2017-May-12 19:59N 35°29' E 139°55'0 0.0
2017-May-12 19:29N 35°29' E 139°55'0 0.0
2017-May-12 18:59N 35°29' E 139°55'0 0.0
2017-May-12 18:29N 35°29' E 139°55'0 0.0
2017-May-12 17:59N 35°29' E 139°55'0 0.0
2017-May-12 17:26N 35°29' E 139°55'0 0.0
2017-May-12 16:59N 35°29' E 139°55'0 0.0
2017-May-12 16:23N 35°29' E 139°55'0 0.0
2017-May-12 15:59N 35°29' E 139°55'0 0.0
2017-May-12 15:29N 35°29' E 139°55'0 0.0
2017-May-12 14:59N 35°29' E 139°55'0 0.0
2017-May-12 13:50N 35°29' E 139°55'0 0.0
2017-May-12 09:47N 35°29' E 139°55'0 0.0
2017-May-12 09:26N 35°29' E 139°55'0 0.1
2017-May-12 09:00N 35°29' E 139°55'510.0
2017-May-12 08:30N 35°32' E 140°00'3 0.5
2017-May-12 03:07N 35°32' E 140°03'0 0.2
2017-May-12 02:58N 35°32' E 140°03'2 4.1
2017-May-12 02:29N 35°32' E 140°01'510.6
2017-May-12 02:00N 35°29' E 139°56'0 0.7
2017-May-12 01:30N 35°29' E 139°56'611.6
2017-May-12 00:57N 35°33' E 140°03'0 1.0
2017-May-12 00:29N 35°32' E 140°03'3 4.4
2017-May-11 23:51N 35°31' E 140°00'510.8
2017-May-11 23:24N 35°29' E 139°55'1 1.5
2017-May-11 23:00N 35°29' E 139°54'0 0.0
2017-May-11 22:30N 35°29' E 139°54'0 0.0
2017-May-11 22:00N 35°29' E 139°54'4 7.5
2017-May-11 21:30N 35°27' E 139°50'611.7
2017-May-11 21:00N 35°23' E 139°46'511.0
2017-May-11 20:30N 35°17' E 139°45'611.5
2017-May-11 20:00N 35°12' E 139°47'612.1
2017-May-11 19:30N 35°06' E 139°45'612.0
2017-May-11 19:00N 35°01' E 139°40'612.2
2017-May-11 18:30N 34°57' E 139°34'612.5
2017-May-11 18:00N 34°54' E 139°28'22610.8
2017-May-10 20:59N 34°08' E 134°59'713.3
2017-May-10 20:29N 34°14' E 134°59'712.9
2017-May-10 19:58N 34°21' E 134°60'712.4
2017-May-10 19:25N 34°27' E 135°04'511.7
2017-May-10 18:59N 34°32' E 135°04'612.1
2017-May-10 18:30N 34°37' E 135°00'  
Track history (hours):
 
Tides and Currents Weather Stations Pressure Air Temp Water Temp Dewpoint Dewpoint Depression Visibility Wind Speed Wind Dir Waves Ship Positions

Toyomasa Maru

Last reported at 2017-May-16 22:05 UTC. Time now 2017-May-26 22:48 UTC.
Position N 35°06' E 139°44'.
Warning: this ship's position is 10 days out of date.

Length 101 m; draft 6.7 m.

Type: Tanker. MMSI: 431300401.

Date/timePositionNaut miles runAvg speedWind from/ knotsBaromVisibWave heightAir tempDewpointWater temp
2017-May-16 22:05N 35°06' E 139°44'213.3
2017-May-16 21:56N 35°08' E 139°45'613.0
2017-May-16 21:30N 35°13' E 139°46'612.4
2017-May-16 21:00N 35°19' E 139°43'611.7
2017-May-16 20:30N 35°25' E 139°43'4 8.2
2017-May-16 20:00N 35°29' E 139°46'0 0.0
2017-May-16 19:30N 35°29' E 139°46'0 0.0
2017-May-16 19:00N 35°29' E 139°46'0 0.0
2017-May-16 18:30N 35°29' E 139°46'0 0.0
2017-May-16 18:00N 35°29' E 139°46'0 0.1
2017-May-16 17:30N 35°29' E 139°46'0 0.0
2017-May-16 17:00N 35°29' E 139°46'0 0.1
2017-May-16 16:30N 35°29' E 139°46'0 0.0
2017-May-16 16:00N 35°29' E 139°46'0 0.1
2017-May-16 15:30N 35°29' E 139°46'0 0.1
2017-May-16 15:00N 35°29' E 139°46'2 1.7
2017-May-16 14:00N 35°30' E 139°45'0 0.0
2017-May-16 13:30N 35°30' E 139°45'0 0.0
2017-May-16 13:00N 35°30' E 139°45'0 0.0
2017-May-16 12:30N 35°30' E 139°45'0 0.0
2017-May-16 12:00N 35°30' E 139°45'0 0.0
2017-May-16 11:30N 35°30' E 139°45'0 0.0
2017-May-16 10:57N 35°30' E 139°45'0 0.0
2017-May-16 10:30N 35°30' E 139°45'0 0.2
2017-May-16 10:00N 35°30' E 139°45'3 6.8
2017-May-16 09:31N 35°28' E 139°43'4 7.4
2017-May-16 09:00N 35°25' E 139°46'612.2
2017-May-16 08:30N 35°19' E 139°44'612.0
2017-May-16 08:01N 35°14' E 139°47'713.5
2017-May-16 07:29N 35°07' E 139°45'  
2017-May-13 15:48N 34°54' E 139°45'311.3
2017-May-13 15:30N 34°57' E 139°43'510.6
2017-May-13 15:00N 35°02' E 139°43'612.0
2017-May-13 14:31N 35°08' E 139°45'1212.2
2017-May-13 13:30N 35°20' E 139°42'612.4
2017-May-13 13:00N 35°26' E 139°45'713.5
2017-May-13 12:30N 35°30' E 139°52'10 1.8
2017-May-13 07:16N 35°32' E 140°03'7 5.1
2017-May-13 05:55N 35°29' E 139°56'1 0.6
2017-May-13 04:53N 35°29' E 139°55'0 0.0
2017-May-13 04:26N 35°29' E 139°55'0 0.0
2017-May-13 03:59N 35°29' E 139°55'0 0.0
2017-May-13 03:20N 35°29' E 139°55'0 0.0
2017-May-13 02:56N 35°29' E 139°55'0 0.0
2017-May-13 01:02N 35°29' E 139°55'0 0.0
2017-May-13 00:59N 35°29' E 139°55'0 0.0
2017-May-13 00:29N 35°29' E 139°55'0 0.0
2017-May-12 23:59N 35°29' E 139°55'0 0.0
2017-May-12 23:26N 35°29' E 139°55'0 0.0
2017-May-12 22:56N 35°29' E 139°55'0 0.0
2017-May-12 22:29N 35°29' E 139°55'0 0.0
2017-May-12 21:53N 35°29' E 139°55'0 0.0
2017-May-12 21:08N 35°29' E 139°55'0 0.0
2017-May-12 20:44N 35°29' E 139°55'0 0.0
2017-May-12 20:23N 35°29' E 139°55'0 0.0
2017-May-12 19:59N 35°29' E 139°55'0 0.0
2017-May-12 19:29N 35°29' E 139°55'0 0.0
2017-May-12 18:59N 35°29' E 139°55'0 0.0
2017-May-12 18:29N 35°29' E 139°55'0 0.0
2017-May-12 17:59N 35°29' E 139°55'0 0.0
2017-May-12 17:26N 35°29' E 139°55'0 0.0
2017-May-12 16:59N 35°29' E 139°55'0 0.0
2017-May-12 16:23N 35°29' E 139°55'0 0.0
2017-May-12 15:59N 35°29' E 139°55'0 0.0
2017-May-12 15:29N 35°29' E 139°55'0 0.0
2017-May-12 14:59N 35°29' E 139°55'0 0.0
2017-May-12 13:50N 35°29' E 139°55'0 0.0
2017-May-12 09:47N 35°29' E 139°55'0 0.0
2017-May-12 09:26N 35°29' E 139°55'0 0.1
2017-May-12 09:00N 35°29' E 139°55'510.0
2017-May-12 08:30N 35°32' E 140°00'3 0.5
2017-May-12 03:07N 35°32' E 140°03'0 0.2
2017-May-12 02:58N 35°32' E 140°03'2 4.1
2017-May-12 02:29N 35°32' E 140°01'510.6
2017-May-12 02:00N 35°29' E 139°56'0 0.7
2017-May-12 01:30N 35°29' E 139°56'611.6
2017-May-12 00:57N 35°33' E 140°03'0 1.0
2017-May-12 00:29N 35°32' E 140°03'3 4.4
2017-May-11 23:51N 35°31' E 140°00'510.8
2017-May-11 23:24N 35°29' E 139°55'1 1.5
2017-May-11 23:00N 35°29' E 139°54'0 0.0
2017-May-11 22:30N 35°29' E 139°54'0 0.0
2017-May-11 22:00N 35°29' E 139°54'4 7.5
2017-May-11 21:30N 35°27' E 139°50'611.7
2017-May-11 21:00N 35°23' E 139°46'511.0
2017-May-11 20:30N 35°17' E 139°45'611.5
2017-May-11 20:00N 35°12' E 139°47'612.1
2017-May-11 19:30N 35°06' E 139°45'612.0
2017-May-11 19:00N 35°01' E 139°40'612.2
2017-May-11 18:30N 34°57' E 139°34'612.5
2017-May-11 18:00N 34°54' E 139°28'22610.8
2017-May-10 20:59N 34°08' E 134°59'713.3
2017-May-10 20:29N 34°14' E 134°59'712.9
2017-May-10 19:58N 34°21' E 134°60'712.4
2017-May-10 19:25N 34°27' E 135°04'511.7
2017-May-10 18:59N 34°32' E 135°04'612.1
2017-May-10 18:30N 34°37' E 135°00'  

Dump ship's entire track history